createdAt,value
2019-05-09T00:01:25.832Z,65.57
2019-05-09T00:03:55.366Z,65.45
2019-05-09T00:06:24.883Z,64.64
2019-05-09T00:08:54.463Z,65.55
2019-05-09T00:11:24.718Z,65.75
2019-05-09T00:13:54.370Z,63.81
2019-05-09T00:16:23.910Z,63.40
2019-05-09T00:18:54.254Z,63.20
2019-05-09T00:21:29.515Z,65.76
2019-05-09T00:23:59.043Z,65.25
2019-05-09T00:26:28.543Z,65.37
2019-05-09T00:29:03.737Z,65.71
2019-05-09T00:31:55.503Z,65.32
2019-05-09T00:34:44.535Z,65.04
2019-05-09T00:37:14.100Z,64.08
2019-05-09T00:39:43.645Z,64.75
2019-05-09T00:42:13.801Z,64.48
2019-05-09T00:44:45.716Z,64.99
2019-05-09T00:47:33.359Z,65.62
2019-05-09T00:50:05.077Z,65.42
2019-05-09T00:52:34.176Z,60.71
2019-05-09T00:55:04.205Z,64.81
2019-05-09T00:57:33.764Z,61.85
2019-05-09T01:00:08.880Z,63.88
2019-05-09T01:02:38.431Z,63.17
2019-05-09T01:05:08.227Z,63.15
2019-05-09T01:07:37.711Z,62.76
2019-05-09T01:10:07.484Z,63.71
2019-05-09T01:12:37.032Z,63.72
2019-05-09T01:15:06.944Z,63.22
2019-05-09T01:17:36.517Z,63.71
2019-05-09T01:20:06.370Z,64.08
2019-05-09T01:22:35.942Z,63.34
2019-05-09T01:25:05.750Z,63.50
2019-05-09T01:27:35.252Z,57.93
2019-05-09T01:30:04.999Z,64.15
2019-05-09T01:32:59.422Z,63.08
2019-05-09T01:35:28.968Z,61.33
2019-05-09T01:37:58.508Z,62.78
2019-05-09T01:40:28.025Z,62.27
2019-05-09T01:42:57.504Z,62.44
2019-05-09T01:45:27.550Z,62.57
2019-05-09T01:47:57.104Z,61.64
2019-05-09T01:50:26.716Z,61.86
2019-05-09T01:52:56.402Z,62.01
2019-05-09T01:55:44.922Z,62.83
2019-05-09T01:58:14.534Z,62.21
2019-05-09T02:00:44.068Z,62.39
2019-05-09T02:03:14.010Z,62.83
2019-05-09T02:05:43.557Z,62.26
2019-05-09T02:08:14.291Z,62.91
2019-05-09T02:10:44.266Z,63.19
2019-05-09T02:13:13.861Z,62.26
2019-05-09T02:16:13.984Z,63.82
2019-05-09T02:18:57.074Z,62.44
2019-05-09T02:21:26.642Z,61.91
2019-05-09T02:23:56.328Z,60.55
2019-05-09T02:26:25.870Z,61.00
2019-05-09T02:28:55.515Z,62.01
2019-05-09T02:31:25.066Z,62.49
2019-05-09T02:33:54.648Z,64.00
2019-05-09T02:36:24.267Z,62.37
2019-05-09T02:38:53.887Z,64.05
2019-05-09T02:41:23.549Z,62.91
2019-05-09T02:43:53.115Z,62.55
2019-05-09T02:46:34.720Z,64.37
2019-05-09T02:49:04.389Z,62.46
2019-05-09T02:51:33.912Z,63.91
2019-05-09T02:54:03.605Z,62.14
2019-05-09T02:56:33.201Z,62.67
2019-05-09T02:59:21.835Z,61.76
2019-05-09T03:02:19.245Z,59.87
2019-05-09T03:04:48.976Z,61.55
2019-05-09T03:07:20.328Z,60.97
2019-05-09T03:09:50.020Z,60.88
2019-05-09T03:12:30.453Z,61.50
2019-05-09T03:14:50.911Z,61.75
2019-05-09T03:17:20.526Z,62.64
2019-05-09T03:19:50.093Z,62.53
2019-05-09T03:22:20.938Z,61.42
2019-05-09T03:24:50.479Z,61.76
2019-05-09T03:27:28.779Z,61.03
2019-05-09T03:29:59.154Z,60.82
2019-05-09T03:32:29.835Z,60.95
2019-05-09T03:34:59.530Z,60.02
2019-05-09T03:37:29.058Z,60.75
2019-05-09T03:39:58.598Z,60.07
2019-05-09T03:42:38.057Z,59.56
2019-05-09T03:44:59.465Z,59.46
2019-05-09T03:47:41.784Z,59.61
2019-05-09T03:50:13.643Z,59.38
2019-05-09T03:52:43.279Z,59.95
2019-05-09T03:55:17.923Z,59.96
2019-05-09T03:57:58.077Z,59.60
2019-05-09T04:00:28.399Z,60.15
2019-05-09T04:02:58.254Z,60.51
2019-05-09T04:05:27.860Z,60.27
2019-05-09T04:08:18.234Z,60.72
2019-05-09T04:10:50.262Z,61.39
2019-05-09T04:13:21.912Z,61.16
2019-05-09T04:15:51.438Z,60.66
2019-05-09T04:18:21.066Z,61.03
2019-05-09T04:20:50.743Z,60.75
2019-05-09T04:23:20.510Z,60.19
2019-05-09T04:25:59.480Z,61.03
2019-05-09T04:28:28.996Z,60.83
2019-05-09T04:30:58.632Z,61.61
2019-05-09T04:33:28.174Z,62.57
2019-05-09T04:35:59.345Z,61.60
2019-05-09T04:38:28.910Z,61.40
2019-05-09T04:40:58.544Z,60.60
2019-05-09T04:43:35.550Z,60.33
2019-05-09T04:46:00.906Z,60.14
2019-05-09T04:48:37.644Z,59.52
2019-05-09T04:51:08.042Z,59.96
2019-05-09T04:53:39.963Z,60.68
2019-05-09T04:56:17.578Z,60.90
2019-05-09T04:58:48.185Z,62.68
2019-05-09T05:01:25.346Z,62.17
2019-05-09T05:03:57.337Z,62.17
2019-05-09T05:06:28.117Z,62.80
2019-05-09T05:08:58.565Z,61.77
2019-05-09T05:11:28.358Z,62.14
2019-05-09T05:13:58.630Z,62.21
2019-05-09T05:16:28.466Z,63.41
2019-05-09T05:18:58.515Z,62.87
2019-05-09T05:21:28.620Z,63.66
2019-05-09T05:24:12.462Z,60.34
2019-05-09T05:26:42.042Z,62.95
2019-05-09T05:29:11.742Z,63.36
2019-05-09T05:31:41.289Z,63.14
2019-05-09T05:34:19.000Z,62.85
2019-05-09T05:36:48.630Z,61.74
2019-05-09T05:39:18.191Z,63.13
2019-05-09T05:41:48.444Z,62.71
2019-05-09T05:44:18.010Z,62.19
2019-05-09T05:46:55.288Z,56.84
2019-05-09T05:49:24.770Z,58.69
2019-05-09T05:51:54.311Z,59.78
2019-05-09T05:54:23.913Z,62.72
2019-05-09T05:56:53.489Z,62.83
2019-05-09T05:59:22.988Z,63.11
2019-05-09T06:01:52.782Z,62.92
2019-05-09T06:04:22.287Z,62.96
2019-05-09T06:06:51.889Z,62.62
2019-05-09T06:09:21.414Z,62.94
2019-05-09T06:11:50.924Z,62.98
2019-05-09T06:14:20.490Z,59.97
2019-05-09T06:16:50.103Z,61.61
2019-05-09T06:19:19.724Z,61.34
2019-05-09T06:21:52.404Z,60.39
2019-05-09T06:24:20.594Z,60.11
2019-05-09T06:26:50.188Z,61.62
2019-05-09T06:29:19.778Z,55.19
2019-05-09T06:31:49.431Z,60.98
2019-05-09T06:34:19.216Z,61.38
2019-05-09T06:36:49.214Z,61.27
2019-05-09T06:39:18.724Z,61.20
2019-05-09T06:41:48.634Z,61.08
2019-05-09T06:44:37.309Z,59.70
2019-05-09T06:47:10.880Z,60.55
2019-05-09T06:49:43.244Z,59.26
2019-05-09T06:52:12.848Z,58.24
2019-05-09T06:54:42.392Z,60.17
2019-05-09T06:57:11.917Z,60.60
2019-05-09T06:59:41.463Z,60.04
2019-05-09T07:02:19.097Z,60.96
2019-05-09T07:04:52.600Z,60.13
2019-05-09T07:07:34.808Z,54.31
2019-05-09T07:10:07.439Z,59.74
2019-05-09T07:12:37.938Z,59.21
2019-05-09T07:15:08.979Z,59.70
2019-05-09T07:17:38.905Z,58.88
2019-05-09T07:20:08.795Z,58.33
2019-05-09T07:22:43.388Z,58.90
2019-05-09T07:25:22.165Z,58.33
2019-05-09T07:27:51.721Z,57.71
2019-05-09T07:30:39.304Z,57.38
2019-05-09T07:33:23.043Z,56.05
2019-05-09T07:35:52.663Z,56.27
2019-05-09T07:38:32.444Z,56.70
2019-05-09T07:41:02.580Z,55.98
2019-05-09T07:43:32.203Z,54.40
2019-05-09T07:46:08.492Z,52.82
2019-05-09T07:48:38.180Z,56.61
2019-05-09T07:51:08.436Z,56.80
2019-05-09T07:53:38.906Z,56.47
2019-05-09T07:56:08.473Z,52.71
2019-05-09T07:58:38.277Z,53.13
2019-05-09T08:01:08.737Z,55.83
2019-05-09T08:03:39.449Z,54.91
2019-05-09T08:06:09.252Z,56.12
2019-05-09T08:08:38.901Z,54.43
2019-05-09T08:11:09.090Z,55.43
2019-05-09T08:13:39.617Z,54.36
2019-05-09T08:16:14.226Z,53.82
2019-05-09T08:18:40.842Z,52.00
2019-05-09T08:21:10.500Z,47.93
2019-05-09T08:23:40.141Z,54.56
2019-05-09T08:26:09.756Z,51.94
2019-05-09T08:28:39.326Z,50.50
2019-05-09T08:31:08.914Z,47.30
2019-05-09T08:33:38.505Z,53.50
2019-05-09T08:36:08.864Z,51.33
2019-05-09T08:39:48.568Z,51.54
2019-05-09T08:43:12.806Z,54.01
2019-05-09T08:45:42.422Z,47.92
2019-05-09T08:48:11.959Z,47.27
2019-05-09T08:50:51.516Z,48.49
2019-05-09T08:53:21.092Z,54.23
2019-05-09T08:55:50.652Z,50.15
2019-05-09T08:58:20.366Z,53.23
2019-05-09T09:00:49.945Z,49.60
2019-05-09T09:03:19.605Z,46.11
2019-05-09T09:05:49.213Z,48.01
2019-05-09T09:08:18.755Z,44.12
2019-05-09T09:10:48.940Z,46.70
2019-05-09T09:13:18.557Z,44.88
2019-05-09T09:16:04.684Z,44.66
2019-05-09T09:18:19.524Z,46.43
2019-05-09T09:20:49.028Z,46.91
2019-05-09T09:23:18.652Z,44.40
2019-05-09T09:25:48.819Z,43.61
2019-05-09T09:28:18.559Z,43.50
2019-05-09T09:30:48.635Z,45.52
2019-05-09T09:33:18.129Z,44.71
2019-05-09T09:35:49.008Z,46.24
2019-05-09T09:38:18.692Z,46.46
2019-05-09T09:40:48.280Z,48.08
2019-05-09T09:43:17.963Z,49.23
2019-05-09T09:45:48.236Z,46.77
2019-05-09T09:48:18.813Z,44.36
2019-05-09T09:50:51.443Z,41.15
2019-05-09T09:53:19.703Z,42.68
2019-05-09T09:55:49.230Z,42.73
2019-05-09T09:58:19.215Z,43.49
2019-05-09T10:01:31.864Z,42.69
2019-05-09T10:04:16.795Z,41.09
2019-05-09T10:06:35.242Z,41.68
2019-05-09T10:09:09.334Z,40.71
2019-05-09T10:11:38.505Z,40.01
2019-05-09T10:14:10.035Z,40.22
2019-05-09T10:16:58.087Z,40.03
2019-05-09T10:19:50.428Z,40.78
2019-05-09T10:22:24.700Z,41.82
2019-05-09T10:24:52.824Z,42.48
2019-05-09T10:27:22.413Z,41.41
2019-05-09T10:29:52.029Z,41.10
2019-05-09T10:32:21.601Z,41.26
2019-05-09T10:34:51.101Z,42.08
2019-05-09T10:37:20.678Z,42.07
2019-05-09T10:39:50.432Z,43.33
2019-05-09T10:42:28.615Z,42.40
2019-05-09T10:45:08.082Z,42.09
2019-05-09T10:47:37.843Z,42.11
2019-05-09T10:50:08.541Z,41.77
2019-05-09T10:52:38.162Z,42.06
2019-05-09T10:55:09.124Z,41.61
2019-05-09T10:57:42.326Z,42.11
2019-05-09T11:00:10.608Z,42.79
2019-05-09T11:02:40.205Z,45.25
2019-05-09T11:05:09.957Z,47.91
2019-05-09T11:07:39.526Z,55.74
2019-05-09T11:10:24.548Z,61.38
2019-05-09T11:12:40.591Z,62.62
2019-05-09T11:15:10.369Z,67.10
2019-05-09T11:17:39.934Z,68.37
2019-05-09T11:20:09.528Z,68.71
2019-05-09T11:22:39.094Z,66.22
2019-05-09T11:25:08.893Z,67.92
2019-05-09T11:27:38.954Z,70.94
2019-05-09T11:30:08.592Z,71.30
2019-05-09T11:32:38.670Z,70.21
2019-05-09T11:35:08.990Z,71.48
2019-05-09T11:37:38.747Z,73.38
2019-05-09T11:40:08.389Z,73.94
2019-05-09T11:42:38.257Z,75.06
2019-05-09T11:45:08.163Z,73.67
2019-05-09T11:47:45.511Z,74.46
2019-05-09T11:50:09.110Z,75.86
2019-05-09T11:52:38.633Z,72.88
2019-05-09T11:55:28.157Z,77.48
2019-05-09T11:57:39.553Z,74.50
2019-05-09T12:00:10.116Z,71.13
2019-05-09T12:02:39.627Z,76.42
2019-05-09T12:05:09.152Z,72.20
2019-05-09T12:07:38.658Z,74.42
2019-05-09T12:10:08.311Z,72.98
2019-05-09T12:12:39.058Z,75.22
2019-05-09T12:15:09.508Z,71.23
2019-05-09T12:17:52.932Z,71.69
2019-05-09T12:20:13.574Z,77.05
2019-05-09T12:22:41.901Z,79.63
2019-05-09T12:25:11.540Z,84.97
2019-05-09T12:27:41.076Z,91.90
2019-05-09T12:30:10.857Z,90.69
2019-05-09T12:32:40.602Z,51.83
2019-05-09T12:35:10.270Z,50.23
2019-05-09T12:37:39.794Z,49.05
2019-05-09T12:40:09.462Z,65.81
2019-05-09T12:42:39.621Z,48.13
2019-05-09T12:45:09.493Z,47.66
2019-05-09T12:47:39.956Z,47.32
2019-05-09T12:50:09.880Z,47.26
2019-05-09T12:52:39.510Z,48.87
2019-05-09T12:55:12.692Z,63.39
2019-05-09T12:57:40.447Z,49.65
2019-05-09T13:00:10.709Z,46.57
2019-05-09T13:02:40.279Z,47.69
2019-05-09T13:05:09.962Z,46.41
2019-05-09T13:07:42.379Z,62.55
2019-05-09T13:10:10.949Z,48.64
2019-05-09T13:12:40.491Z,47.46
2019-05-09T13:15:10.153Z,45.64
2019-05-09T13:17:42.335Z,45.74
2019-05-09T13:20:13.552Z,45.01
2019-05-09T13:22:43.142Z,47.49
2019-05-09T13:25:12.814Z,57.90
2019-05-09T13:27:42.352Z,57.95
2019-05-09T13:30:12.107Z,55.60
2019-05-09T13:32:41.617Z,44.94
2019-05-09T13:35:11.342Z,54.42
2019-05-09T13:37:40.891Z,51.77
2019-05-09T13:40:10.504Z,51.35
2019-05-09T13:42:40.083Z,47.99
2019-05-09T13:45:10.226Z,46.38
2019-05-09T13:47:39.769Z,44.32
2019-05-09T13:50:09.958Z,45.36
2019-05-09T13:52:39.617Z,46.39
2019-05-09T13:55:09.199Z,46.28
2019-05-09T13:57:38.708Z,43.22
2019-05-09T14:00:08.974Z,43.44
2019-05-09T14:02:38.741Z,44.15
2019-05-09T14:05:09.198Z,40.36
2019-05-09T14:07:38.745Z,38.88
2019-05-09T14:10:10.416Z,38.01
2019-05-09T14:12:40.076Z,39.89
2019-05-09T14:15:09.642Z,38.28
2019-05-09T14:17:49.385Z,39.80
2019-05-09T14:20:10.615Z,39.41
2019-05-09T14:22:40.158Z,41.71
2019-05-09T14:25:11.504Z,38.29
2019-05-09T14:27:40.914Z,39.72
2019-05-09T14:30:10.554Z,41.42
2019-05-09T14:32:40.473Z,39.02
2019-05-09T14:35:10.061Z,39.12
2019-05-09T14:37:39.540Z,38.35
2019-05-09T14:40:10.320Z,39.22
2019-05-09T14:42:40.691Z,39.07
2019-05-09T14:45:10.447Z,38.98
2019-05-09T14:47:42.447Z,37.86
2019-05-09T14:50:11.300Z,36.88
2019-05-09T14:52:40.822Z,37.13
2019-05-09T14:55:10.552Z,35.74
2019-05-09T14:57:40.074Z,36.19
2019-05-09T15:00:09.972Z,37.49
2019-05-09T15:02:39.544Z,38.52
2019-05-09T15:05:09.747Z,37.58
2019-05-09T15:07:39.683Z,36.52
2019-05-09T15:10:09.921Z,38.22
2019-05-09T15:12:39.423Z,39.12
2019-05-09T15:15:09.943Z,39.85
2019-05-09T15:17:39.436Z,40.06
2019-05-09T15:20:09.695Z,40.33
2019-05-09T15:22:39.374Z,40.65
2019-05-09T15:25:09.644Z,40.73
2019-05-09T15:27:39.238Z,40.57
2019-05-09T15:30:09.112Z,40.54
2019-05-09T15:32:38.611Z,40.36
2019-05-09T15:35:09.090Z,40.62
2019-05-09T15:37:38.992Z,41.41
2019-05-09T15:40:09.014Z,41.24
2019-05-09T15:42:39.053Z,41.10
2019-05-09T15:45:08.987Z,41.16
2019-05-09T15:47:38.672Z,40.78
2019-05-09T15:50:18.879Z,41.89
2019-05-09T15:52:40.185Z,41.41
2019-05-09T15:55:09.936Z,41.74
2019-05-09T15:57:39.540Z,42.78
2019-05-09T16:00:10.309Z,44.03
2019-05-09T16:02:39.912Z,46.63
2019-05-09T16:05:10.690Z,53.15
2019-05-09T16:07:40.256Z,59.05
2019-05-09T16:10:09.898Z,62.74
2019-05-09T16:12:39.396Z,57.29
2019-05-09T16:15:09.036Z,62.64
2019-05-09T16:17:39.470Z,62.34
2019-05-09T16:20:09.180Z,56.86
2019-05-09T16:22:39.371Z,55.57
2019-05-09T16:25:09.146Z,55.47
2019-05-09T16:27:38.764Z,60.14
2019-05-09T16:30:08.695Z,61.12
2019-05-09T16:32:38.311Z,62.21
2019-05-09T16:35:08.190Z,64.55
2019-05-09T16:37:57.341Z,65.19
2019-05-09T16:40:09.616Z,67.27
2019-05-09T16:42:39.089Z,66.21
2019-05-09T16:45:09.857Z,68.41
2019-05-09T16:47:39.435Z,66.53
2019-05-09T16:50:12.088Z,66.66
2019-05-09T16:52:43.512Z,69.46
2019-05-09T16:55:18.071Z,69.56
2019-05-09T16:57:47.575Z,67.45
2019-05-09T17:00:30.336Z,69.16
2019-05-09T17:02:59.915Z,68.73
2019-05-09T17:05:29.420Z,77.29
2019-05-09T17:07:58.983Z,76.46
2019-05-09T17:10:28.565Z,77.13
2019-05-09T17:12:58.372Z,75.52
2019-05-09T17:15:29.201Z,73.39
2019-05-09T17:17:58.935Z,73.21
2019-05-09T17:20:34.977Z,71.81
2019-05-09T17:23:14.347Z,74.86
2019-05-09T17:25:40.506Z,76.44
2019-05-09T17:28:10.004Z,77.02
2019-05-09T17:30:39.683Z,73.32
2019-05-09T17:33:09.556Z,70.95
2019-05-09T17:35:39.125Z,69.45
2019-05-09T17:38:08.916Z,68.80
2019-05-09T17:40:39.308Z,68.56
2019-05-09T17:43:08.973Z,67.95
2019-05-09T17:45:41.900Z,67.95
2019-05-09T17:48:09.969Z,68.31
2019-05-09T17:50:39.578Z,67.81
2019-05-09T17:53:09.145Z,66.06
2019-05-09T17:55:38.643Z,67.17
2019-05-09T17:58:08.933Z,67.38
2019-05-09T18:00:38.569Z,66.93
2019-05-09T18:03:08.258Z,66.70
2019-05-09T18:05:39.044Z,67.00
2019-05-09T18:08:08.726Z,67.60
2019-05-09T18:10:38.355Z,67.25
2019-05-09T18:13:08.257Z,66.49
2019-05-09T18:15:38.075Z,67.02
2019-05-09T18:18:07.660Z,66.84
2019-05-09T18:20:38.009Z,67.06
2019-05-09T18:23:08.331Z,66.44
2019-05-09T18:25:38.074Z,66.57
2019-05-09T18:28:07.742Z,63.10
2019-05-09T18:30:38.858Z,64.91
2019-05-09T18:33:13.166Z,65.38
2019-05-09T18:35:42.750Z,65.87
2019-05-09T18:38:20.451Z,65.80
2019-05-09T18:40:50.123Z,65.00
2019-05-09T18:43:19.700Z,65.59
2019-05-09T18:45:49.316Z,65.52
2019-05-09T18:48:18.851Z,65.67
2019-05-09T18:50:48.381Z,65.20
2019-05-09T18:53:17.990Z,66.51
2019-05-09T18:55:47.547Z,66.07
2019-05-09T18:58:17.057Z,65.72
2019-05-09T19:00:46.695Z,66.26
2019-05-09T19:03:16.291Z,65.76
2019-05-09T19:05:45.805Z,66.83
2019-05-09T19:08:15.390Z,65.42
2019-05-09T19:10:45.241Z,65.74
2019-05-09T19:13:14.878Z,65.30
2019-05-09T19:16:03.382Z,65.91
2019-05-09T19:18:57.795Z,66.19
2019-05-09T19:21:30.816Z,66.35
2019-05-09T19:24:00.448Z,65.76
2019-05-09T19:26:35.957Z,65.70
2019-05-09T19:29:06.575Z,66.59
2019-05-09T19:31:36.426Z,66.26
2019-05-09T19:34:06.293Z,66.75
2019-05-09T19:36:36.541Z,65.64
2019-05-09T19:39:10.137Z,66.78
2019-05-09T19:41:39.852Z,66.83
2019-05-09T19:44:09.505Z,66.27
2019-05-09T19:46:39.205Z,66.13
2019-05-09T19:49:08.986Z,66.11
2019-05-09T19:51:38.577Z,65.64
2019-05-09T19:54:08.162Z,67.11
2019-05-09T19:56:37.720Z,66.00
2019-05-09T19:59:08.509Z,67.21
2019-05-09T20:01:38.109Z,67.11
2019-05-09T20:04:07.716Z,66.08
2019-05-09T20:06:37.253Z,67.21
2019-05-09T20:09:11.344Z,66.97
2019-05-09T20:12:12.095Z,62.40
2019-05-09T20:14:44.360Z,67.25
2019-05-09T20:17:13.994Z,67.43
2019-05-09T20:19:43.603Z,64.92
2019-05-09T20:22:13.357Z,67.55
2019-05-09T20:24:43.035Z,67.10
2019-05-09T20:27:12.618Z,67.62
2019-05-09T20:29:42.205Z,67.91
2019-05-09T20:32:11.698Z,67.99
2019-05-09T20:34:41.252Z,68.40
2019-05-09T20:37:10.847Z,68.00
2019-05-09T20:39:40.545Z,67.82
2019-05-09T20:42:10.341Z,67.66
2019-05-09T20:44:40.301Z,67.77
2019-05-09T20:47:10.777Z,69.76
2019-05-09T20:49:40.537Z,72.26
2019-05-09T20:52:10.295Z,70.86
2019-05-09T20:54:40.006Z,69.94
2019-05-09T20:57:09.770Z,72.32
2019-05-09T20:59:39.569Z,71.02
2019-05-09T21:02:09.285Z,70.27
2019-05-09T21:04:39.048Z,70.83
2019-05-09T21:07:08.774Z,70.98
2019-05-09T21:09:38.473Z,64.94
2019-05-09T21:12:11.107Z,69.63
2019-05-09T21:14:39.661Z,70.78
2019-05-09T21:17:09.330Z,70.15
2019-05-09T21:19:39.101Z,69.29
2019-05-09T21:22:08.810Z,68.30
2019-05-09T21:24:38.567Z,64.71
2019-05-09T21:27:08.383Z,68.18
2019-05-09T21:29:38.046Z,69.56
2019-05-09T21:32:07.807Z,69.30
2019-05-09T21:34:37.447Z,67.66
2019-05-09T21:37:08.195Z,67.35
2019-05-09T21:39:37.777Z,66.67
2019-05-09T21:42:07.292Z,66.54
2019-05-09T21:44:36.816Z,66.81
2019-05-09T21:47:06.329Z,66.61
2019-05-09T21:49:35.932Z,65.78
2019-05-09T21:52:05.520Z,66.65
2019-05-09T21:54:35.031Z,66.51
2019-05-09T21:57:05.062Z,65.43
2019-05-09T21:59:34.837Z,65.72
2019-05-09T22:02:04.537Z,65.87
2019-05-09T22:04:34.100Z,65.42
2019-05-09T22:07:03.707Z,66.13
2019-05-09T22:09:33.289Z,67.04
2019-05-09T22:12:02.911Z,66.46
2019-05-09T22:14:32.479Z,66.05
2019-05-09T22:17:06.434Z,65.79
2019-05-09T22:19:35.992Z,64.94
2019-05-09T22:22:05.836Z,65.89
2019-05-09T22:24:35.427Z,64.63
2019-05-09T22:27:05.018Z,65.80
2019-05-09T22:29:34.555Z,66.00
2019-05-09T22:32:04.235Z,66.49
2019-05-09T22:34:33.783Z,65.43
2019-05-09T22:37:03.370Z,62.86
2019-05-09T22:39:32.902Z,64.73
2019-05-09T22:42:02.436Z,64.56
2019-05-09T22:44:31.925Z,65.22
2019-05-09T22:47:01.449Z,65.55
2019-05-09T22:49:30.988Z,65.87
2019-05-09T22:52:00.534Z,61.94
2019-05-09T22:54:30.099Z,65.20
2019-05-09T22:56:59.654Z,65.50
2019-05-09T22:59:29.251Z,65.16
2019-05-09T23:01:58.842Z,65.21
2019-05-09T23:04:28.350Z,65.83
2019-05-09T23:06:57.929Z,63.56
2019-05-09T23:09:27.484Z,65.02
2019-05-09T23:11:57.154Z,65.45
2019-05-09T23:14:26.719Z,66.11
2019-05-09T23:16:56.197Z,64.72
2019-05-09T23:19:25.761Z,66.23
2019-05-09T23:21:55.308Z,64.96
2019-05-09T23:24:28.834Z,65.87
2019-05-09T23:26:57.823Z,66.05
2019-05-09T23:29:27.319Z,66.73
2019-05-09T23:32:11.761Z,67.19
2019-05-09T23:34:41.370Z,66.33
2019-05-09T23:37:11.020Z,65.80
2019-05-09T23:39:43.055Z,66.57
2019-05-09T23:42:12.763Z,65.59
2019-05-09T23:44:42.363Z,63.30
2019-05-09T23:47:11.869Z,63.07
2019-05-09T23:49:41.449Z,66.08
2019-05-09T23:52:10.950Z,65.95
2019-05-09T23:54:57.847Z,67.60
2019-05-09T23:57:44.511Z,65.30
